sensor_id;sensor_type;location;lat;lon;timestamp;temperature;humidity
11474;DHT22;5793;52.238;13.438;2023-07-22T00:00:43;12.50;99.90
11474;DHT22;5793;52.238;13.438;2023-07-22T00:03:13;12.60;99.90
11474;DHT22;5793;52.238;13.438;2023-07-22T00:05:41;12.60;99.90
11474;DHT22;5793;52.238;13.438;2023-07-22T00:08:10;12.50;99.90
11474;DHT22;5793;52.238;13.438;2023-07-22T00:10:40;12.60;99.90
11474;DHT22;5793;52.238;13.438;2023-07-22T00:13:09;12.60;99.90
11474;DHT22;5793;52.238;13.438;2023-07-22T00:15:36;12.70;99.90
11474;DHT22;5793;52.238;13.438;2023-07-22T00:18:04;12.70;99.90
11474;DHT22;5793;52.238;13.438;2023-07-22T00:20:34;12.70;99.90
11474;DHT22;5793;52.238;13.438;2023-07-22T00:23:01;12.70;99.90
11474;DHT22;5793;52.238;13.438;2023-07-22T00:25:29;12.90;99.90
11474;DHT22;5793;52.238;13.438;2023-07-22T00:27:57;12.90;99.90
11474;DHT22;5793;52.238;13.438;2023-07-22T00:30:25;13.00;99.90
11474;DHT22;5793;52.238;13.438;2023-07-22T00:32:54;13.00;99.90
11474;DHT22;5793;52.238;13.438;2023-07-22T00:35:22;13.10;99.90
11474;DHT22;5793;52.238;13.438;2023-07-22T00:37:51;13.00;99.90
11474;DHT22;5793;52.238;13.438;2023-07-22T00:40:19;13.00;99.90
11474;DHT22;5793;52.238;13.438;2023-07-22T00:42:47;13.00;99.90
11474;DHT22;5793;52.238;13.438;2023-07-22T00:45:15;13.00;99.90
11474;DHT22;5793;52.238;13.438;2023-07-22T00:47:43;13.00;99.90
11474;DHT22;5793;52.238;13.438;2023-07-22T00:50:12;13.00;99.90
11474;DHT22;5793;52.238;13.438;2023-07-22T00:52:40;13.00;99.90
11474;DHT22;5793;52.238;13.438;2023-07-22T00:55:09;13.00;99.90
11474;DHT22;5793;52.238;13.438;2023-07-22T00:57:37;13.00;99.90
11474;DHT22;5793;52.238;13.438;2023-07-22T01:00:06;13.20;99.90
11474;DHT22;5793;52.238;13.438;2023-07-22T01:02:38;13.10;99.90
11474;DHT22;5793;52.238;13.438;2023-07-22T01:05:06;13.10;99.90
11474;DHT22;5793;52.238;13.438;2023-07-22T01:07:37;13.10;99.90
11474;DHT22;5793;52.238;13.438;2023-07-22T01:10:06;13.20;99.90
11474;DHT22;5793;52.238;13.438;2023-07-22T01:12:36;13.10;99.90
11474;DHT22;5793;52.238;13.438;2023-07-22T01:15:05;13.20;99.90
11474;DHT22;5793;52.238;13.438;2023-07-22T01:17:37;13.20;99.90
11474;DHT22;5793;52.238;13.438;2023-07-22T01:20:06;13.10;99.90
11474;DHT22;5793;52.238;13.438;2023-07-22T01:22:36;13.10;99.90
11474;DHT22;5793;52.238;13.438;2023-07-22T01:25:07;13.10;99.90
11474;DHT22;5793;52.238;13.438;2023-07-22T01:27:35;13.20;99.90
11474;DHT22;5793;52.238;13.438;2023-07-22T01:30:04;13.20;99.90
11474;DHT22;5793;52.238;13.438;2023-07-22T01:32:33;13.20;99.90
11474;DHT22;5793;52.238;13.438;2023-07-22T01:35:01;13.20;99.90
11474;DHT22;5793;52.238;13.438;2023-07-22T01:37:29;13.30;99.90
11474;DHT22;5793;52.238;13.438;2023-07-22T01:39:58;13.30;99.90
11474;DHT22;5793;52.238;13.438;2023-07-22T01:42:27;13.40;99.90
11474;DHT22;5793;52.238;13.438;2023-07-22T01:44:55;13.40;99.90
11474;DHT22;5793;52.238;13.438;2023-07-22T01:47:23;13.50;99.90
11474;DHT22;5793;52.238;13.438;2023-07-22T01:49:52;13.50;99.90
11474;DHT22;5793;52.238;13.438;2023-07-22T01:52:20;13.50;99.90
11474;DHT22;5793;52.238;13.438;2023-07-22T01:54:48;13.50;99.90
11474;DHT22;5793;52.238;13.438;2023-07-22T01:57:15;13.40;99.90
11474;DHT22;5793;52.238;13.438;2023-07-22T01:59:45;13.40;99.90
11474;DHT22;5793;52.238;13.438;2023-07-22T02:02:13;13.40;99.90
11474;DHT22;5793;52.238;13.438;2023-07-22T02:04:40;13.30;99.90
11474;DHT22;5793;52.238;13.438;2023-07-22T02:07:08;13.30;99.90
11474;DHT22;5793;52.238;13.438;2023-07-22T02:09:36;13.30;99.90
11474;DHT22;5793;52.238;13.438;2023-07-22T02:12:05;13.20;99.90
11474;DHT22;5793;52.238;13.438;2023-07-22T02:14:34;13.20;99.90
11474;DHT22;5793;52.238;13.438;2023-07-22T02:17:03;13.30;99.90
11474;DHT22;5793;52.238;13.438;2023-07-22T02:19:31;13.20;99.90
11474;DHT22;5793;52.238;13.438;2023-07-22T02:21:59;13.20;99.90
11474;DHT22;5793;52.238;13.438;2023-07-22T02:24:27;13.10;99.90
11474;DHT22;5793;52.238;13.438;2023-07-22T02:26:54;13.10;99.90
11474;DHT22;5793;52.238;13.438;2023-07-22T02:29:22;13.10;99.90
11474;DHT22;5793;52.238;13.438;2023-07-22T02:31:50;13.10;99.90
11474;DHT22;5793;52.238;13.438;2023-07-22T02:34:19;13.10;99.90
11474;DHT22;5793;52.238;13.438;2023-07-22T02:36:48;13.10;99.90
11474;DHT22;5793;52.238;13.438;2023-07-22T02:39:16;13.10;99.90
11474;DHT22;5793;52.238;13.438;2023-07-22T02:41:44;13.10;99.90
11474;DHT22;5793;52.238;13.438;2023-07-22T02:44:11;13.10;99.90
11474;DHT22;5793;52.238;13.438;2023-07-22T02:46:40;13.00;99.90
11474;DHT22;5793;52.238;13.438;2023-07-22T02:49:07;13.00;99.90
11474;DHT22;5793;52.238;13.438;2023-07-22T02:51:37;13.00;99.90
11474;DHT22;5793;52.238;13.438;2023-07-22T02:54:05;13.00;99.90
11474;DHT22;5793;52.238;13.438;2023-07-22T02:56:33;13.10;99.90
11474;DHT22;5793;52.238;13.438;2023-07-22T02:59:01;13.00;99.90
11474;DHT22;5793;52.238;13.438;2023-07-22T03:01:29;13.10;99.90
11474;DHT22;5793;52.238;13.438;2023-07-22T03:03:58;13.10;99.90
11474;DHT22;5793;52.238;13.438;2023-07-22T03:06:25;13.10;99.90
11474;DHT22;5793;52.238;13.438;2023-07-22T03:08:57;13.00;99.90
11474;DHT22;5793;52.238;13.438;2023-07-22T03:11:25;13.00;99.90
11474;DHT22;5793;52.238;13.438;2023-07-22T03:13:53;13.00;99.90
11474;DHT22;5793;52.238;13.438;2023-07-22T03:16:21;12.90;99.90
11474;DHT22;5793;52.238;13.438;2023-07-22T03:18:50;12.90;99.90
11474;DHT22;5793;52.238;13.438;2023-07-22T03:21:18;12.90;99.90
11474;DHT22;5793;52.238;13.438;2023-07-22T03:23:45;12.90;99.90
11474;DHT22;5793;52.238;13.438;2023-07-22T03:26:15;12.90;99.90
11474;DHT22;5793;52.238;13.438;2023-07-22T03:28:42;12.80;99.90
11474;DHT22;5793;52.238;13.438;2023-07-22T03:31:10;12.80;99.90
11474;DHT22;5793;52.238;13.438;2023-07-22T03:33:38;12.80;99.90
11474;DHT22;5793;52.238;13.438;2023-07-22T03:36:07;12.80;99.90
11474;DHT22;5793;52.238;13.438;2023-07-22T03:38:35;12.80;99.90
11474;DHT22;5793;52.238;13.438;2023-07-22T03:41:03;12.80;99.90
11474;DHT22;5793;52.238;13.438;2023-07-22T03:43:32;12.80;99.90
11474;DHT22;5793;52.238;13.438;2023-07-22T03:46:00;12.80;99.90
11474;DHT22;5793;52.238;13.438;2023-07-22T03:48:28;12.80;99.90
11474;DHT22;5793;52.238;13.438;2023-07-22T03:50:55;12.70;99.90
11474;DHT22;5793;52.238;13.438;2023-07-22T03:53:42;12.80;99.90
11474;DHT22;5793;52.238;13.438;2023-07-22T03:56:10;12.70;99.90
11474;DHT22;5793;52.238;13.438;2023-07-22T03:58:39;12.80;99.90
11474;DHT22;5793;52.238;13.438;2023-07-22T04:01:06;12.80;99.90
11474;DHT22;5793;52.238;13.438;2023-07-22T04:03:34;12.80;99.90
11474;DHT22;5793;52.238;13.438;2023-07-22T04:06:02;12.80;99.90
11474;DHT22;5793;52.238;13.438;2023-07-22T04:08:30;12.80;99.90
11474;DHT22;5793;52.238;13.438;2023-07-22T04:10:58;12.70;99.90
11474;DHT22;5793;52.238;13.438;2023-07-22T04:13:26;12.70;99.90
11474;DHT22;5793;52.238;13.438;2023-07-22T04:15:55;12.70;99.90
11474;DHT22;5793;52.238;13.438;2023-07-22T04:18:23;12.70;99.90
11474;DHT22;5793;52.238;13.438;2023-07-22T04:20:55;12.70;99.90
11474;DHT22;5793;52.238;13.438;2023-07-22T04:23:24;12.70;99.90
11474;DHT22;5793;52.238;13.438;2023-07-22T04:25:51;12.60;99.90
11474;DHT22;5793;52.238;13.438;2023-07-22T04:28:19;12.70;99.90
11474;DHT22;5793;52.238;13.438;2023-07-22T04:30:56;12.60;99.90
11474;DHT22;5793;52.238;13.438;2023-07-22T04:33:25;12.70;99.90
11474;DHT22;5793;52.238;13.438;2023-07-22T04:35:56;12.70;99.90
11474;DHT22;5793;52.238;13.438;2023-07-22T04:38:24;12.80;99.90
11474;DHT22;5793;52.238;13.438;2023-07-22T04:40:51;12.80;99.90
11474;DHT22;5793;52.238;13.438;2023-07-22T04:43:19;12.80;99.90
11474;DHT22;5793;52.238;13.438;2023-07-22T04:45:48;12.80;99.90
11474;DHT22;5793;52.238;13.438;2023-07-22T04:48:20;12.80;99.90
11474;DHT22;5793;52.238;13.438;2023-07-22T04:50:48;12.90;99.90
11474;DHT22;5793;52.238;13.438;2023-07-22T04:53:16;12.90;99.90
11474;DHT22;5793;52.238;13.438;2023-07-22T04:55:44;13.00;99.90
11474;DHT22;5793;52.238;13.438;2023-07-22T04:58:12;13.10;99.90
11474;DHT22;5793;52.238;13.438;2023-07-22T05:00:40;13.20;99.90
11474;DHT22;5793;52.238;13.438;2023-07-22T05:03:09;13.30;99.90
11474;DHT22;5793;52.238;13.438;2023-07-22T05:05:38;13.40;99.90
11474;DHT22;5793;52.238;13.438;2023-07-22T05:08:06;13.40;99.90
11474;DHT22;5793;52.238;13.438;2023-07-22T05:10:36;13.50;99.90
11474;DHT22;5793;52.238;13.438;2023-07-22T05:13:04;13.60;99.90
11474;DHT22;5793;52.238;13.438;2023-07-22T05:15:32;13.70;99.90
11474;DHT22;5793;52.238;13.438;2023-07-22T05:18:00;13.70;99.90
11474;DHT22;5793;52.238;13.438;2023-07-22T05:20:28;13.80;99.90
11474;DHT22;5793;52.238;13.438;2023-07-22T05:22:57;13.80;99.90
11474;DHT22;5793;52.238;13.438;2023-07-22T05:25:25;13.90;99.90
11474;DHT22;5793;52.238;13.438;2023-07-22T05:27:54;13.90;99.90
11474;DHT22;5793;52.238;13.438;2023-07-22T05:30:22;14.00;99.90
11474;DHT22;5793;52.238;13.438;2023-07-22T05:33:01;14.00;99.90
11474;DHT22;5793;52.238;13.438;2023-07-22T05:35:29;14.00;99.90
11474;DHT22;5793;52.238;13.438;2023-07-22T05:37:58;14.00;99.90
11474;DHT22;5793;52.238;13.438;2023-07-22T05:40:27;14.20;99.90
11474;DHT22;5793;52.238;13.438;2023-07-22T05:42:55;14.20;99.90
11474;DHT22;5793;52.238;13.438;2023-07-22T05:45:23;14.20;99.90
11474;DHT22;5793;52.238;13.438;2023-07-22T05:47:51;14.20;99.90
11474;DHT22;5793;52.238;13.438;2023-07-22T05:50:18;14.30;99.90
11474;DHT22;5793;52.238;13.438;2023-07-22T05:52:46;14.40;99.90
11474;DHT22;5793;52.238;13.438;2023-07-22T05:55:16;14.40;99.90
11474;DHT22;5793;52.238;13.438;2023-07-22T05:57:44;14.50;99.90
11474;DHT22;5793;52.238;13.438;2023-07-22T06:00:12;14.50;99.90
11474;DHT22;5793;52.238;13.438;2023-07-22T06:02:41;14.50;99.90
11474;DHT22;5793;52.238;13.438;2023-07-22T06:05:09;14.60;99.90
11474;DHT22;5793;52.238;13.438;2023-07-22T06:07:36;14.60;99.90
11474;DHT22;5793;52.238;13.438;2023-07-22T06:10:05;14.70;99.90
11474;DHT22;5793;52.238;13.438;2023-07-22T06:12:36;14.80;99.90
11474;DHT22;5793;52.238;13.438;2023-07-22T06:15:07;14.90;99.90
11474;DHT22;5793;52.238;13.438;2023-07-22T06:17:35;15.00;99.90
11474;DHT22;5793;52.238;13.438;2023-07-22T06:20:04;15.20;99.90
11474;DHT22;5793;52.238;13.438;2023-07-22T06:22:32;15.30;99.90
11474;DHT22;5793;52.238;13.438;2023-07-22T06:24:59;15.20;99.90
11474;DHT22;5793;52.238;13.438;2023-07-22T06:27:27;15.30;99.90
11474;DHT22;5793;52.238;13.438;2023-07-22T06:29:57;15.30;99.90
11474;DHT22;5793;52.238;13.438;2023-07-22T06:32:25;15.40;99.90
11474;DHT22;5793;52.238;13.438;2023-07-22T06:34:53;15.50;99.90
11474;DHT22;5793;52.238;13.438;2023-07-22T06:37:20;15.60;99.90
11474;DHT22;5793;52.238;13.438;2023-07-22T06:39:48;15.60;99.90
11474;DHT22;5793;52.238;13.438;2023-07-22T06:42:16;15.70;99.90
11474;DHT22;5793;52.238;13.438;2023-07-22T06:44:44;15.90;99.90
11474;DHT22;5793;52.238;13.438;2023-07-22T06:47:13;15.90;99.90
11474;DHT22;5793;52.238;13.438;2023-07-22T06:49:41;16.00;99.90
11474;DHT22;5793;52.238;13.438;2023-07-22T06:52:13;16.10;99.90
11474;DHT22;5793;52.238;13.438;2023-07-22T06:54:41;16.20;99.90
11474;DHT22;5793;52.238;13.438;2023-07-22T06:57:08;16.30;99.90
11474;DHT22;5793;52.238;13.438;2023-07-22T06:59:36;16.50;99.90
11474;DHT22;5793;52.238;13.438;2023-07-22T07:02:04;16.60;99.90
11474;DHT22;5793;52.238;13.438;2023-07-22T07:04:33;16.60;99.90
11474;DHT22;5793;52.238;13.438;2023-07-22T07:07:01;16.70;99.90
11474;DHT22;5793;52.238;13.438;2023-07-22T07:09:30;16.80;99.90
11474;DHT22;5793;52.238;13.438;2023-07-22T07:11:58;16.90;99.90
11474;DHT22;5793;52.238;13.438;2023-07-22T07:14:25;17.00;99.90
11474;DHT22;5793;52.238;13.438;2023-07-22T07:16:54;17.00;99.90
11474;DHT22;5793;52.238;13.438;2023-07-22T07:19:22;17.00;99.90
11474;DHT22;5793;52.238;13.438;2023-07-22T07:21:51;17.10;99.90
11474;DHT22;5793;52.238;13.438;2023-07-22T07:24:19;17.20;99.90
11474;DHT22;5793;52.238;13.438;2023-07-22T07:26:47;17.20;99.90
11474;DHT22;5793;52.238;13.438;2023-07-22T07:29:14;17.40;99.90
11474;DHT22;5793;52.238;13.438;2023-07-22T07:32:03;17.60;99.90
11474;DHT22;5793;52.238;13.438;2023-07-22T07:34:31;17.70;99.90
11474;DHT22;5793;52.238;13.438;2023-07-22T07:37:00;17.80;99.90
11474;DHT22;5793;52.238;13.438;2023-07-22T07:39:29;17.80;99.90
11474;DHT22;5793;52.238;13.438;2023-07-22T07:41:57;18.00;99.90
11474;DHT22;5793;52.238;13.438;2023-07-22T07:44:24;18.10;99.90
11474;DHT22;5793;52.238;13.438;2023-07-22T07:46:52;18.20;99.90
11474;DHT22;5793;52.238;13.438;2023-07-22T07:49:20;18.30;99.90
11474;DHT22;5793;52.238;13.438;2023-07-22T07:51:48;18.20;99.90
11474;DHT22;5793;52.238;13.438;2023-07-22T07:54:17;18.50;99.90
11474;DHT22;5793;52.238;13.438;2023-07-22T07:56:45;18.80;99.90
11474;DHT22;5793;52.238;13.438;2023-07-22T07:59:12;19.00;99.90
11474;DHT22;5793;52.238;13.438;2023-07-22T08:01:40;19.10;99.90
11474;DHT22;5793;52.238;13.438;2023-07-22T08:04:09;19.30;99.90
11474;DHT22;5793;52.238;13.438;2023-07-22T08:06:36;19.30;99.90
11474;DHT22;5793;52.238;13.438;2023-07-22T08:09:05;19.40;99.90
11474;DHT22;5793;52.238;13.438;2023-07-22T08:11:34;19.30;99.90
11474;DHT22;5793;52.238;13.438;2023-07-22T08:14:02;19.30;99.90
11474;DHT22;5793;52.238;13.438;2023-07-22T08:16:29;19.40;99.90
11474;DHT22;5793;52.238;13.438;2023-07-22T08:18:57;19.80;99.90
11474;DHT22;5793;52.238;13.438;2023-07-22T08:21:25;19.80;99.90
11474;DHT22;5793;52.238;13.438;2023-07-22T08:23:53;19.80;99.90
11474;DHT22;5793;52.238;13.438;2023-07-22T08:26:21;19.90;99.90
11474;DHT22;5793;52.238;13.438;2023-07-22T08:28:50;20.10;99.90
11474;DHT22;5793;52.238;13.438;2023-07-22T08:31:18;20.30;99.90
11474;DHT22;5793;52.238;13.438;2023-07-22T08:33:45;20.60;99.90
11474;DHT22;5793;52.238;13.438;2023-07-22T08:36:13;20.40;99.90
11474;DHT22;5793;52.238;13.438;2023-07-22T08:38:42;20.40;99.90
11474;DHT22;5793;52.238;13.438;2023-07-22T08:41:13;20.90;99.90
11474;DHT22;5793;52.238;13.438;2023-07-22T08:43:42;20.70;99.90
11474;DHT22;5793;52.238;13.438;2023-07-22T08:46:13;21.10;99.90
11474;DHT22;5793;52.238;13.438;2023-07-22T08:48:45;21.10;99.90
11474;DHT22;5793;52.238;13.438;2023-07-22T08:51:16;20.90;99.90
11474;DHT22;5793;52.238;13.438;2023-07-22T08:53:45;20.60;99.90
11474;DHT22;5793;52.238;13.438;2023-07-22T08:56:26;20.40;99.90
11474;DHT22;5793;52.238;13.438;2023-07-22T08:58:55;20.90;99.90
11474;DHT22;5793;52.238;13.438;2023-07-22T09:01:24;20.80;99.90
11474;DHT22;5793;52.238;13.438;2023-07-22T09:03:53;21.70;99.90
11474;DHT22;5793;52.238;13.438;2023-07-22T09:06:23;22.70;99.90
11474;DHT22;5793;52.238;13.438;2023-07-22T09:08:51;24.40;99.90
11474;DHT22;5793;52.238;13.438;2023-07-22T09:11:20;24.20;98.40
11474;DHT22;5793;52.238;13.438;2023-07-22T09:13:50;23.30;98.50
11474;DHT22;5793;52.238;13.438;2023-07-22T09:16:20;22.80;99.90
11474;DHT22;5793;52.238;13.438;2023-07-22T09:18:50;23.30;98.70
11474;DHT22;5793;52.238;13.438;2023-07-22T09:21:18;25.00;93.90
11474;DHT22;5793;52.238;13.438;2023-07-22T09:23:46;26.00;91.20
11474;DHT22;5793;52.238;13.438;2023-07-22T09:26:18;24.90;91.50
11474;DHT22;5793;52.238;13.438;2023-07-22T09:28:48;25.00;91.40
11474;DHT22;5793;52.238;13.438;2023-07-22T09:31:16;26.50;87.60
11474;DHT22;5793;52.238;13.438;2023-07-22T09:33:44;25.40;89.80
11474;DHT22;5793;52.238;13.438;2023-07-22T09:36:13;25.30;91.30
11474;DHT22;5793;52.238;13.438;2023-07-22T09:38:41;26.50;86.00
11474;DHT22;5793;52.238;13.438;2023-07-22T09:41:09;28.10;82.10
11474;DHT22;5793;52.238;13.438;2023-07-22T09:43:37;29.80;72.10
11474;DHT22;5793;52.238;13.438;2023-07-22T09:46:07;31.20;66.80
11474;DHT22;5793;52.238;13.438;2023-07-22T09:48:52;31.20;63.90
11474;DHT22;5793;52.238;13.438;2023-07-22T09:51:21;31.20;61.70
11474;DHT22;5793;52.238;13.438;2023-07-22T09:54:01;28.80;66.40
11474;DHT22;5793;52.238;13.438;2023-07-22T09:56:29;26.00;72.90
11474;DHT22;5793;52.238;13.438;2023-07-22T09:58:58;24.30;77.00
11474;DHT22;5793;52.238;13.438;2023-07-22T10:01:26;23.60;79.80
11474;DHT22;5793;52.238;13.438;2023-07-22T10:03:56;23.10;82.50
11474;DHT22;5793;52.238;13.438;2023-07-22T10:06:27;25.80;78.40
11474;DHT22;5793;52.238;13.438;2023-07-22T10:08:55;27.50;71.40
11474;DHT22;5793;52.238;13.438;2023-07-22T10:11:25;26.80;71.00
11474;DHT22;5793;52.238;13.438;2023-07-22T10:13:55;25.10;75.50
11474;DHT22;5793;52.238;13.438;2023-07-22T10:16:23;25.00;78.40
11474;DHT22;5793;52.238;13.438;2023-07-22T10:18:53;24.30;79.80
11474;DHT22;5793;52.238;13.438;2023-07-22T10:21:22;23.80;75.80
11474;DHT22;5793;52.238;13.438;2023-07-22T10:23:51;25.30;76.60
11474;DHT22;5793;52.238;13.438;2023-07-22T10:26:20;26.40;73.30
11474;DHT22;5793;52.238;13.438;2023-07-22T10:29:09;26.30;73.30
11474;DHT22;5793;52.238;13.438;2023-07-22T10:31:37;26.90;70.00
11474;DHT22;5793;52.238;13.438;2023-07-22T10:34:05;29.10;66.70
11474;DHT22;5793;52.238;13.438;2023-07-22T10:36:33;30.90;60.30
11474;DHT22;5793;52.238;13.438;2023-07-22T10:39:02;31.20;57.60
11474;DHT22;5793;52.238;13.438;2023-07-22T10:41:32;29.80;59.60
11474;DHT22;5793;52.238;13.438;2023-07-22T10:44:00;30.20;57.90
11474;DHT22;5793;52.238;13.438;2023-07-22T10:46:33;31.90;59.10
11474;DHT22;5793;52.238;13.438;2023-07-22T10:49:09;32.70;55.30
11474;DHT22;5793;52.238;13.438;2023-07-22T10:51:37;33.90;55.30
11474;DHT22;5793;52.238;13.438;2023-07-22T10:54:12;33.30;52.50
11474;DHT22;5793;52.238;13.438;2023-07-22T10:56:43;30.40;57.60
11474;DHT22;5793;52.238;13.438;2023-07-22T10:59:11;28.50;59.90
11474;DHT22;5793;52.238;13.438;2023-07-22T11:01:41;29.30;59.20
11474;DHT22;5793;52.238;13.438;2023-07-22T11:04:21;30.20;57.60
11474;DHT22;5793;52.238;13.438;2023-07-22T11:07:08;30.30;57.80
11474;DHT22;5793;52.238;13.438;2023-07-22T11:09:39;29.70;57.20
11474;DHT22;5793;52.238;13.438;2023-07-22T11:12:13;28.00;61.70
11474;DHT22;5793;52.238;13.438;2023-07-22T11:14:47;26.30;63.90
11474;DHT22;5793;52.238;13.438;2023-07-22T11:17:16;25.20;68.60
11474;DHT22;5793;52.238;13.438;2023-07-22T11:19:45;25.80;65.80
11474;DHT22;5793;52.238;13.438;2023-07-22T11:22:13;26.90;63.00
11474;DHT22;5793;52.238;13.438;2023-07-22T11:24:42;27.40;63.70
11474;DHT22;5793;52.238;13.438;2023-07-22T11:27:11;27.70;64.00
11474;DHT22;5793;52.238;13.438;2023-07-22T11:29:40;26.50;64.80
11474;DHT22;5793;52.238;13.438;2023-07-22T11:32:14;25.30;67.50
11474;DHT22;5793;52.238;13.438;2023-07-22T11:34:43;24.20;69.40
11474;DHT22;5793;52.238;13.438;2023-07-22T11:37:12;24.00;71.60
11474;DHT22;5793;52.238;13.438;2023-07-22T11:39:43;24.20;73.40
11474;DHT22;5793;52.238;13.438;2023-07-22T11:42:11;24.10;70.50
11474;DHT22;5793;52.238;13.438;2023-07-22T11:44:39;23.60;72.70
11474;DHT22;5793;52.238;13.438;2023-07-22T11:47:07;23.00;74.30
11474;DHT22;5793;52.238;13.438;2023-07-22T11:49:37;22.30;76.10
11474;DHT22;5793;52.238;13.438;2023-07-22T11:52:06;21.90;78.10
11474;DHT22;5793;52.238;13.438;2023-07-22T11:54:36;21.60;78.80
11474;DHT22;5793;52.238;13.438;2023-07-22T11:57:13;21.70;81.20
11474;DHT22;5793;52.238;13.438;2023-07-22T11:59:43;22.40;84.90
11474;DHT22;5793;52.238;13.438;2023-07-22T12:02:13;23.10;79.10
11474;DHT22;5793;52.238;13.438;2023-07-22T12:04:41;23.00;78.80
11474;DHT22;5793;52.238;13.438;2023-07-22T12:07:21;22.90;79.10
11474;DHT22;5793;52.238;13.438;2023-07-22T12:09:49;23.30;80.40
11474;DHT22;5793;52.238;13.438;2023-07-22T12:12:19;23.80;77.20
11474;DHT22;5793;52.238;13.438;2023-07-22T12:14:47;24.00;77.30
11474;DHT22;5793;52.238;13.438;2023-07-22T12:17:15;23.80;77.00
11474;DHT22;5793;52.238;13.438;2023-07-22T12:19:51;23.80;77.90
11474;DHT22;5793;52.238;13.438;2023-07-22T12:22:19;23.50;78.20
11474;DHT22;5793;52.238;13.438;2023-07-22T12:24:47;23.30;80.70
11474;DHT22;5793;52.238;13.438;2023-07-22T12:27:15;22.80;79.00
11474;DHT22;5793;52.238;13.438;2023-07-22T12:29:44;22.50;81.20
11474;DHT22;5793;52.238;13.438;2023-07-22T12:32:12;22.20;81.90
11474;DHT22;5793;52.238;13.438;2023-07-22T12:34:40;21.90;80.40
11474;DHT22;5793;52.238;13.438;2023-07-22T12:37:08;21.90;84.90
11474;DHT22;5793;52.238;13.438;2023-07-22T12:39:35;22.60;82.40
11474;DHT22;5793;52.238;13.438;2023-07-22T12:42:03;23.20;81.10
11474;DHT22;5793;52.238;13.438;2023-07-22T12:44:31;23.60;79.80
11474;DHT22;5793;52.238;13.438;2023-07-22T12:47:00;23.80;76.80
11474;DHT22;5793;52.238;13.438;2023-07-22T12:49:28;23.90;78.40
11474;DHT22;5793;52.238;13.438;2023-07-22T12:51:56;23.80;76.80
11474;DHT22;5793;52.238;13.438;2023-07-22T12:54:30;23.70;78.40
11474;DHT22;5793;52.238;13.438;2023-07-22T12:56:58;23.50;76.70
11474;DHT22;5793;52.238;13.438;2023-07-22T12:59:26;23.20;77.50
11474;DHT22;5793;52.238;13.438;2023-07-22T13:01:54;23.00;77.30
11474;DHT22;5793;52.238;13.438;2023-07-22T13:04:24;22.90;77.90
11474;DHT22;5793;52.238;13.438;2023-07-22T13:06:52;23.00;79.10
11474;DHT22;5793;52.238;13.438;2023-07-22T13:09:20;22.90;77.60
11474;DHT22;5793;52.238;13.438;2023-07-22T13:11:48;22.70;79.30
11474;DHT22;5793;52.238;13.438;2023-07-22T13:14:16;22.50;79.90
11474;DHT22;5793;52.238;13.438;2023-07-22T13:16:45;22.30;79.40
11474;DHT22;5793;52.238;13.438;2023-07-22T13:19:12;22.10;79.60
11474;DHT22;5793;52.238;13.438;2023-07-22T13:21:42;21.90;80.00
11474;DHT22;5793;52.238;13.438;2023-07-22T13:24:09;21.90;80.70
11474;DHT22;5793;52.238;13.438;2023-07-22T13:26:37;21.90;81.80
11474;DHT22;5793;52.238;13.438;2023-07-22T13:29:06;22.00;83.20
11474;DHT22;5793;52.238;13.438;2023-07-22T13:31:35;22.00;82.70
11474;DHT22;5793;52.238;13.438;2023-07-22T13:34:03;22.10;83.90
11474;DHT22;5793;52.238;13.438;2023-07-22T13:36:31;22.20;83.60
11474;DHT22;5793;52.238;13.438;2023-07-22T13:39:00;22.40;90.00
11474;DHT22;5793;52.238;13.438;2023-07-22T13:41:28;22.90;89.80
11474;DHT22;5793;52.238;13.438;2023-07-22T13:43:56;23.10;89.20
11474;DHT22;5793;52.238;13.438;2023-07-22T13:46:24;23.10;90.30
11474;DHT22;5793;52.238;13.438;2023-07-22T13:48:51;23.00;91.30
11474;DHT22;5793;52.238;13.438;2023-07-22T13:51:19;22.90;90.90
11474;DHT22;5793;52.238;13.438;2023-07-22T13:53:47;22.60;91.00
11474;DHT22;5793;52.238;13.438;2023-07-22T13:56:17;22.60;91.30
11474;DHT22;5793;52.238;13.438;2023-07-22T13:58:44;22.50;91.80
11474;DHT22;5793;52.238;13.438;2023-07-22T14:01:12;22.40;91.60
11474;DHT22;5793;52.238;13.438;2023-07-22T14:03:42;22.30;92.10
11474;DHT22;5793;52.238;13.438;2023-07-22T14:06:10;22.30;92.40
11474;DHT22;5793;52.238;13.438;2023-07-22T14:08:37;22.30;92.60
11474;DHT22;5793;52.238;13.438;2023-07-22T14:11:08;22.20;93.70
11474;DHT22;5793;52.238;13.438;2023-07-22T14:13:37;22.50;93.00
11474;DHT22;5793;52.238;13.438;2023-07-22T14:16:05;22.50;93.70
11474;DHT22;5793;52.238;13.438;2023-07-22T14:18:47;22.70;93.20
11474;DHT22;5793;52.238;13.438;2023-07-22T14:21:15;22.60;93.10
11474;DHT22;5793;52.238;13.438;2023-07-22T14:23:43;22.50;93.90
11474;DHT22;5793;52.238;13.438;2023-07-22T14:26:11;22.40;93.20
11474;DHT22;5793;52.238;13.438;2023-07-22T14:28:40;22.60;92.80
11474;DHT22;5793;52.238;13.438;2023-07-22T14:31:08;22.70;92.70
11474;DHT22;5793;52.238;13.438;2023-07-22T14:33:36;22.70;92.10
11474;DHT22;5793;52.238;13.438;2023-07-22T14:36:04;22.60;92.80
11474;DHT22;5793;52.238;13.438;2023-07-22T14:38:32;22.70;91.40
11474;DHT22;5793;52.238;13.438;2023-07-22T14:41:00;22.60;91.50
11474;DHT22;5793;52.238;13.438;2023-07-22T14:43:28;22.50;92.30
11474;DHT22;5793;52.238;13.438;2023-07-22T14:45:57;22.60;92.50
11474;DHT22;5793;52.238;13.438;2023-07-22T14:48:24;22.70;91.80
11474;DHT22;5793;52.238;13.438;2023-07-22T14:50:52;22.50;92.00
11474;DHT22;5793;52.238;13.438;2023-07-22T14:53:20;22.30;92.30
11474;DHT22;5793;52.238;13.438;2023-07-22T14:55:48;22.20;92.80
11474;DHT22;5793;52.238;13.438;2023-07-22T14:58:19;22.20;93.30
11474;DHT22;5793;52.238;13.438;2023-07-22T15:00:47;22.20;92.60
11474;DHT22;5793;52.238;13.438;2023-07-22T15:03:16;22.10;92.80
11474;DHT22;5793;52.238;13.438;2023-07-22T15:05:44;22.20;93.10
11474;DHT22;5793;52.238;13.438;2023-07-22T15:08:12;22.50;92.50
11474;DHT22;5793;52.238;13.438;2023-07-22T15:10:40;22.60;92.50
11474;DHT22;5793;52.238;13.438;2023-07-22T15:13:08;22.60;93.20
11474;DHT22;5793;52.238;13.438;2023-07-22T15:15:35;22.60;92.50
11474;DHT22;5793;52.238;13.438;2023-07-22T15:18:03;22.50;92.00
11474;DHT22;5793;52.238;13.438;2023-07-22T15:20:35;22.60;92.50
11474;DHT22;5793;52.238;13.438;2023-07-22T15:23:03;22.70;93.00
11474;DHT22;5793;52.238;13.438;2023-07-22T15:25:30;22.60;93.10
11474;DHT22;5793;52.238;13.438;2023-07-22T15:27:58;22.50;93.50
11474;DHT22;5793;52.238;13.438;2023-07-22T15:30:26;22.40;94.30
11474;DHT22;5793;52.238;13.438;2023-07-22T15:32:54;22.40;93.30
11474;DHT22;5793;52.238;13.438;2023-07-22T15:35:22;22.20;95.50
11474;DHT22;5793;52.238;13.438;2023-07-22T15:37:51;22.10;93.90
11474;DHT22;5793;52.238;13.438;2023-07-22T15:40:21;21.90;95.10